createdAt,value
2022-12-08T00:01:45.790Z,49.33
2022-12-08T00:04:13.567Z,36.17
2022-12-08T00:07:02.357Z,48.92
2022-12-08T00:09:39.026Z,45.30
2022-12-08T00:12:16.813Z,50.17
2022-12-08T00:14:46.966Z,48.30
2022-12-08T00:17:16.344Z,46.17
2022-12-08T00:19:46.249Z,46.53
2022-12-08T00:22:19.891Z,44.30
2022-12-08T00:24:48.021Z,44.73
2022-12-08T00:27:18.337Z,45.90
2022-12-08T00:29:47.070Z,45.17
2022-12-08T00:32:17.649Z,39.27
2022-12-08T00:34:46.725Z,41.87
2022-12-08T00:37:14.495Z,32.57
2022-12-08T00:39:46.199Z,42.55
2022-12-08T00:45:07.819Z,41.27
2022-12-08T00:47:35.827Z,39.43
2022-12-08T00:50:05.396Z,46.80
2022-12-08T00:52:35.228Z,45.77
2022-12-08T00:55:05.472Z,46.97
2022-12-08T00:57:35.657Z,43.90
2022-12-08T01:00:04.331Z,25.37
2022-12-08T01:02:34.702Z,38.43
2022-12-08T01:05:05.132Z,40.50
2022-12-08T01:07:38.535Z,36.37
2022-12-08T01:10:09.671Z,39.90
2022-12-08T01:12:41.693Z,51.90
2022-12-08T01:15:10.762Z,56.00
2022-12-08T01:17:39.488Z,49.37
2022-12-08T01:20:09.206Z,37.03
2022-12-08T01:22:37.873Z,49.90
2022-12-08T01:25:07.128Z,43.40
2022-12-08T01:27:37.254Z,48.80
2022-12-08T01:30:06.065Z,53.70
2022-12-08T01:32:34.335Z,62.50
2022-12-08T01:35:03.188Z,58.73
2022-12-08T01:37:32.539Z,43.97
2022-12-08T01:40:02.158Z,56.63
2022-12-08T01:42:32.554Z,57.00
2022-12-08T01:45:03.266Z,57.17
2022-12-08T01:47:37.208Z,54.93
2022-12-08T01:50:08.705Z,48.37
2022-12-08T01:52:47.000Z,49.93
2022-12-08T01:55:23.230Z,50.80
2022-12-08T01:57:59.767Z,51.73
2022-12-08T02:00:27.825Z,41.60
2022-12-08T02:03:06.890Z,48.07
2022-12-08T02:05:42.319Z,51.83
2022-12-08T02:08:14.994Z,54.63
2022-12-08T02:10:44.031Z,54.07
2022-12-08T02:13:17.727Z,52.70
2022-12-08T02:16:14.906Z,58.22
2022-12-08T02:19:29.587Z,64.80
2022-12-08T02:22:04.647Z,54.87
2022-12-08T02:24:32.565Z,50.47
2022-12-08T02:27:25.886Z,49.08
2022-12-08T02:30:17.913Z,48.33
2022-12-08T02:32:52.818Z,48.50
2022-12-08T02:35:20.795Z,53.83
2022-12-08T02:38:17.356Z,51.00
2022-12-08T02:41:16.968Z,48.83
2022-12-08T02:44:19.753Z,49.10
2022-12-08T02:47:15.182Z,45.67
2022-12-08T02:49:45.792Z,54.03
2022-12-08T02:52:13.974Z,55.50
2022-12-08T02:54:50.650Z,49.60
2022-12-08T02:57:30.911Z,52.08
2022-12-08T03:00:11.506Z,51.37
2022-12-08T03:03:14.970Z,56.77
2022-12-08T03:06:08.089Z,59.77
2022-12-08T03:09:10.257Z,65.47
2022-12-08T03:12:12.251Z,63.77
2022-12-08T03:14:47.923Z,57.30
2022-12-08T03:17:18.780Z,55.43
2022-12-08T03:19:49.528Z,53.80
2022-12-08T03:22:24.891Z,59.03
2022-12-08T03:24:56.188Z,60.60
2022-12-08T03:27:28.181Z,56.03
2022-12-08T03:30:00.727Z,55.43
2022-12-08T03:32:50.749Z,56.87
2022-12-08T03:35:26.926Z,57.87
2022-12-08T03:38:07.697Z,46.23
2022-12-08T03:40:35.412Z,49.13
2022-12-08T03:43:03.488Z,45.28
2022-12-08T03:45:31.316Z,50.87
2022-12-08T03:47:58.909Z,56.80
2022-12-08T03:50:26.879Z,54.47
2022-12-08T03:55:22.177Z,40.78
2022-12-08T03:57:49.816Z,43.35
2022-12-08T04:00:18.090Z,40.47
2022-12-08T04:02:45.778Z,48.20
2022-12-08T04:05:14.627Z,45.35
2022-12-08T04:07:42.539Z,46.83
2022-12-08T04:10:10.874Z,51.50
2022-12-08T04:12:38.908Z,52.57
2022-12-08T04:20:02.365Z,47.92
2022-12-08T04:22:30.614Z,54.70
2022-12-08T04:24:58.738Z,58.23
2022-12-08T04:27:26.534Z,51.83
2022-12-08T04:29:54.288Z,53.58
2022-12-08T04:32:21.954Z,48.15
2022-12-08T04:34:50.234Z,48.20
2022-12-08T04:37:17.757Z,55.87
2022-12-08T04:39:47.821Z,55.33
2022-12-08T04:42:16.757Z,51.83
2022-12-08T04:47:12.686Z,51.60
2022-12-08T04:52:08.014Z,50.40
2022-12-08T04:54:36.039Z,41.75
2022-12-08T04:59:31.701Z,55.72
2022-12-08T05:01:59.622Z,49.93
2022-12-08T05:06:54.942Z,49.78
2022-12-08T05:09:22.836Z,50.15
2022-12-08T05:11:50.695Z,45.92
2022-12-08T05:14:19.407Z,47.28
2022-12-08T05:16:47.896Z,50.80
2022-12-08T05:19:16.924Z,43.30
2022-12-08T05:21:45.645Z,47.73
2022-12-08T05:24:13.312Z,45.40
2022-12-08T05:26:41.435Z,54.15
2022-12-08T05:31:36.619Z,43.97
2022-12-08T05:34:04.405Z,46.72
2022-12-08T05:36:32.236Z,45.05
2022-12-08T05:38:59.840Z,46.38
2022-12-08T05:41:30.439Z,42.83
2022-12-08T05:43:58.091Z,41.07
2022-12-08T05:46:25.936Z,41.83
2022-12-08T05:51:23.879Z,64.43
2022-12-08T05:53:53.598Z,40.13
2022-12-08T05:56:21.587Z,40.37
2022-12-08T06:01:32.158Z,37.10
2022-12-08T06:04:02.153Z,39.20
2022-12-08T06:06:30.643Z,45.43
2022-12-08T06:08:58.496Z,43.73
2022-12-08T06:11:28.818Z,52.95
2022-12-08T06:13:57.637Z,42.63
2022-12-08T06:16:27.133Z,40.13
2022-12-08T06:18:55.934Z,50.20
2022-12-08T06:21:24.045Z,39.73
2022-12-08T06:23:54.008Z,37.70
2022-12-08T06:26:22.796Z,43.57
2022-12-08T06:28:51.151Z,52.70
2022-12-08T06:31:24.264Z,51.60
2022-12-08T06:33:53.850Z,51.70
2022-12-08T06:36:24.475Z,44.77
2022-12-08T06:38:53.372Z,41.37
2022-12-08T06:41:21.172Z,41.60
2022-12-08T06:43:49.239Z,44.08
2022-12-08T06:48:46.190Z,49.93
2022-12-08T06:51:17.103Z,44.72
2022-12-08T06:53:45.755Z,46.33
2022-12-08T06:56:14.600Z,43.93
2022-12-08T06:58:46.194Z,41.37
2022-12-08T07:01:18.233Z,41.73
2022-12-08T07:03:47.999Z,49.47
2022-12-08T07:06:19.448Z,44.93
2022-12-08T07:08:47.328Z,42.57
2022-12-08T07:11:20.909Z,43.38
2022-12-08T07:13:49.245Z,42.13
2022-12-08T07:18:44.582Z,40.70
2022-12-08T07:21:15.133Z,42.58
2022-12-08T07:23:45.791Z,43.20
2022-12-08T07:26:15.522Z,41.03
2022-12-08T07:28:44.787Z,45.17
2022-12-08T07:31:21.667Z,39.30
2022-12-08T07:33:50.488Z,42.38
2022-12-08T07:36:18.379Z,34.50
2022-12-08T07:41:16.071Z,46.10
2022-12-08T07:43:44.921Z,42.73
2022-12-08T07:46:18.158Z,42.73
2022-12-08T07:48:46.833Z,51.83
2022-12-08T07:51:15.723Z,47.20
2022-12-08T07:53:51.806Z,55.77
2022-12-08T07:56:21.449Z,51.38
2022-12-08T07:58:49.636Z,66.43
2022-12-08T08:01:31.579Z,60.00
2022-12-08T08:04:05.332Z,57.40
2022-12-08T08:06:34.994Z,57.03
2022-12-08T08:09:04.361Z,56.90
2022-12-08T08:11:32.117Z,55.30
2022-12-08T08:14:00.128Z,114.75
2022-12-08T08:16:32.127Z,70.15
2022-12-08T08:19:03.240Z,67.10
2022-12-08T08:21:47.186Z,52.67
2022-12-08T08:24:14.939Z,67.07
2022-12-08T08:26:42.577Z,56.47
2022-12-08T08:29:10.526Z,67.00
2022-12-08T08:31:38.240Z,58.70
2022-12-08T08:36:34.530Z,45.37
2022-12-08T08:39:03.469Z,50.20
2022-12-08T08:41:31.280Z,49.10
2022-12-08T08:44:00.196Z,51.93
2022-12-08T08:46:28.300Z,52.17
2022-12-08T08:51:24.071Z,59.77
2022-12-08T08:53:52.432Z,60.80
2022-12-08T08:56:21.292Z,56.30
2022-12-08T08:58:49.797Z,70.90
2022-12-08T09:01:21.159Z,70.37
2022-12-08T09:03:49.611Z,73.90
2022-12-08T09:06:18.293Z,63.77
2022-12-08T09:08:46.709Z,57.90
2022-12-08T09:11:15.187Z,70.87
2022-12-08T09:13:43.032Z,66.57
2022-12-08T09:16:12.840Z,139.55
2022-12-08T09:18:42.055Z,74.07
2022-12-08T09:21:16.596Z,73.45
2022-12-08T09:23:45.014Z,75.57
2022-12-08T09:26:13.055Z,70.33
2022-12-08T09:28:46.664Z,68.63
2022-12-08T09:31:16.205Z,69.07
2022-12-08T09:33:44.362Z,75.60
2022-12-08T09:36:13.608Z,72.97
2022-12-08T09:38:41.419Z,68.90
2022-12-08T09:41:43.307Z,68.37
2022-12-08T09:44:36.074Z,72.73
2022-12-08T09:47:23.584Z,75.03
2022-12-08T09:50:12.989Z,78.77
2022-12-08T09:52:58.063Z,77.47
2022-12-08T09:55:42.152Z,78.83
2022-12-08T09:59:04.257Z,78.80
2022-12-08T10:01:43.531Z,85.07
2022-12-08T10:04:32.623Z,74.63
2022-12-08T10:07:40.455Z,80.20
2022-12-08T10:10:32.338Z,78.93
2022-12-08T10:13:11.733Z,85.57
2022-12-08T10:15:51.397Z,130.83
2022-12-08T10:18:33.662Z,82.53
2022-12-08T10:21:18.512Z,76.67
2022-12-08T10:23:54.171Z,82.13
2022-12-08T10:26:22.758Z,76.73
2022-12-08T10:28:51.255Z,82.20
2022-12-08T10:31:25.208Z,75.27
2022-12-08T10:34:21.985Z,83.23
2022-12-08T10:36:59.485Z,91.13
2022-12-08T10:39:45.939Z,81.97
2022-12-08T10:42:22.610Z,80.67
2022-12-08T10:47:45.060Z,73.50
2022-12-08T10:50:23.470Z,89.47
2022-12-08T10:53:14.663Z,80.00
2022-12-08T10:55:44.716Z,84.57
2022-12-08T10:58:37.402Z,82.60
2022-12-08T11:01:20.529Z,69.03
2022-12-08T11:03:54.895Z,55.90
2022-12-08T11:06:43.073Z,56.40
2022-12-08T11:09:17.015Z,60.87
2022-12-08T11:11:49.441Z,45.37
2022-12-08T11:14:39.922Z,45.53
2022-12-08T11:17:22.277Z,32.37
2022-12-08T11:19:59.011Z,16.00
2022-12-08T11:22:40.078Z,25.43
2022-12-08T11:25:08.364Z,21.37
2022-12-08T11:27:39.064Z,12.85
2022-12-08T11:30:38.497Z,21.80
2022-12-08T11:33:20.183Z,18.80
2022-12-08T11:36:03.818Z,23.10
2022-12-08T11:38:33.818Z,24.43
2022-12-08T11:41:29.827Z,22.83
2022-12-08T11:44:28.552Z,27.13
2022-12-08T11:47:02.559Z,28.40
2022-12-08T11:49:37.550Z,23.20
2022-12-08T11:52:14.730Z,20.77
2022-12-08T11:55:05.586Z,17.13
2022-12-08T11:57:33.710Z,9.47
2022-12-08T12:02:46.181Z,7.60
2022-12-08T12:06:05.337Z,16.40
2022-12-08T12:08:59.264Z,14.23
2022-12-08T12:12:17.133Z,11.67
2022-12-08T12:14:50.967Z,10.63
2022-12-08T12:17:32.065Z,9.83
2022-12-08T12:20:05.330Z,9.07
2022-12-08T12:22:35.939Z,15.50
2022-12-08T12:25:04.913Z,8.73
2022-12-08T12:27:40.932Z,13.33
2022-12-08T12:30:19.611Z,13.97
2022-12-08T12:33:12.177Z,9.70
2022-12-08T12:35:48.242Z,10.80
2022-12-08T12:38:49.629Z,7.07
2022-12-08T12:41:28.034Z,5.30
2022-12-08T12:44:14.314Z,10.17
2022-12-08T12:46:55.174Z,7.47
2022-12-08T12:49:43.724Z,8.83
2022-12-08T12:52:18.811Z,12.20
2022-12-08T12:54:50.435Z,11.87
2022-12-08T12:57:24.309Z,8.53
2022-12-08T12:59:55.788Z,9.67
2022-12-08T13:02:49.257Z,14.30
2022-12-08T13:05:33.332Z,8.47
2022-12-08T13:08:14.854Z,7.83
2022-12-08T13:11:07.154Z,7.63
2022-12-08T13:13:35.517Z,7.77
2022-12-08T13:16:19.763Z,11.87
2022-12-08T13:18:53.304Z,10.97
2022-12-08T13:21:23.811Z,6.67
2022-12-08T13:24:13.683Z,8.80
2022-12-08T13:26:50.036Z,8.37
2022-12-08T13:29:22.638Z,7.10
2022-12-08T13:31:57.714Z,8.03
2022-12-08T13:34:46.220Z,10.50
2022-12-08T13:37:48.113Z,6.43
2022-12-08T13:40:24.819Z,6.33
2022-12-08T13:43:38.735Z,9.47
2022-12-08T13:57:35.028Z,11.83
2022-12-08T14:00:17.636Z,5.77
2022-12-08T14:02:48.654Z,10.70
2022-12-08T14:05:21.678Z,8.00
2022-12-08T14:07:56.979Z,11.18
2022-12-08T14:10:32.342Z,11.03
2022-12-08T14:13:04.086Z,16.20
2022-12-08T14:15:38.437Z,15.90
2022-12-08T14:18:21.232Z,7.73
2022-12-08T14:21:22.602Z,5.43
2022-12-08T14:23:50.774Z,7.97
2022-12-08T14:28:46.159Z,20.33
2022-12-08T14:31:14.834Z,10.00
2022-12-08T14:33:43.398Z,11.37
2022-12-08T14:36:14.671Z,13.50
2022-12-08T14:38:42.335Z,9.00
2022-12-08T14:41:12.351Z,6.25
2022-12-08T14:43:44.188Z,17.20
2022-12-08T14:46:23.315Z,14.37
2022-12-08T14:48:51.268Z,21.60
2022-12-08T14:51:30.388Z,13.85
2022-12-08T14:54:09.058Z,17.17
2022-12-08T14:56:37.285Z,13.07
2022-12-08T14:59:19.935Z,9.27
2022-12-08T15:01:49.895Z,13.63
2022-12-08T15:04:25.993Z,18.53
2022-12-08T15:07:05.113Z,19.13
2022-12-08T15:09:36.590Z,20.13
2022-12-08T15:12:26.435Z,16.93
2022-12-08T15:14:59.960Z,20.27
2022-12-08T15:17:44.603Z,19.00
2022-12-08T15:20:50.358Z,19.40
2022-12-08T15:23:50.648Z,19.40
2022-12-08T15:26:25.659Z,27.27
2022-12-08T15:28:54.678Z,21.40
2022-12-08T15:31:22.928Z,19.97
2022-12-08T15:33:50.778Z,23.40
2022-12-08T15:36:18.727Z,21.90
2022-12-08T15:38:46.454Z,22.23
2022-12-08T15:41:15.390Z,26.75
2022-12-08T15:43:44.377Z,22.13
2022-12-08T15:46:12.375Z,15.43
2022-12-08T15:51:07.974Z,20.40
2022-12-08T15:53:35.809Z,20.67
2022-12-08T15:58:57.277Z,20.10
2022-12-08T16:01:25.978Z,20.60
2022-12-08T16:09:51.307Z,20.00
2022-12-08T16:18:27.407Z,28.23
2022-12-08T16:23:45.193Z,24.87
2022-12-08T16:27:13.914Z,19.53
2022-12-08T16:29:21.315Z,27.50
2022-12-08T16:31:50.593Z,29.40
2022-12-08T16:34:18.415Z,28.30
2022-12-08T16:36:46.359Z,25.10
2022-12-08T16:39:15.261Z,34.53
2022-12-08T16:42:01.785Z,31.58
2022-12-08T16:44:29.701Z,28.83
2022-12-08T16:46:57.896Z,24.83
2022-12-08T16:51:53.040Z,30.63
2022-12-08T16:54:20.688Z,34.38
2022-12-08T16:56:48.517Z,37.42
2022-12-08T17:01:43.974Z,31.33
2022-12-08T17:12:01.857Z,38.50
2022-12-08T17:14:34.538Z,39.40
2022-12-08T17:17:02.493Z,41.27
2022-12-08T17:21:58.797Z,32.83
2022-12-08T17:24:29.244Z,36.43
2022-12-08T17:26:58.538Z,35.87
2022-12-08T17:29:26.470Z,40.53
2022-12-08T17:31:54.195Z,44.20
2022-12-08T17:34:21.877Z,41.70
2022-12-08T17:36:49.793Z,39.55
2022-12-08T17:39:18.948Z,39.50
2022-12-08T17:41:47.960Z,41.63
2022-12-08T17:44:18.963Z,45.03
2022-12-08T17:46:52.626Z,52.77
2022-12-08T17:49:23.814Z,50.97
2022-12-08T17:51:54.420Z,48.43
2022-12-08T17:54:22.748Z,45.77
2022-12-08T17:56:50.555Z,49.67
2022-12-08T17:59:18.884Z,55.95
2022-12-08T18:01:46.775Z,58.50
2022-12-08T18:06:42.117Z,55.30
2022-12-08T18:09:10.242Z,59.88
2022-12-08T18:11:37.957Z,64.23
2022-12-08T18:14:10.333Z,65.20
2022-12-08T18:16:40.781Z,72.67
2022-12-08T18:19:09.248Z,84.90
2022-12-08T18:21:37.736Z,76.17
2022-12-08T18:24:05.954Z,72.23
2022-12-08T18:26:33.735Z,68.70
2022-12-08T18:29:01.846Z,52.30
2022-12-08T18:33:57.637Z,66.90
2022-12-08T18:39:21.842Z,69.47
2022-12-08T18:41:50.122Z,70.33
2022-12-08T18:44:17.926Z,67.43
2022-12-08T18:51:44.859Z,79.50
2022-12-08T18:54:14.270Z,82.63
2022-12-08T18:56:44.422Z,69.27
2022-12-08T18:59:13.892Z,82.33
2022-12-08T19:01:42.000Z,86.97
2022-12-08T19:07:00.483Z,79.03
2022-12-08T19:09:29.540Z,76.03
2022-12-08T19:11:58.718Z,68.30
2022-12-08T19:14:28.480Z,65.53
2022-12-08T19:16:59.720Z,76.73
2022-12-08T19:19:37.021Z,78.93
2022-12-08T19:22:05.251Z,79.30
2022-12-08T19:27:06.702Z,75.90
2022-12-08T19:29:35.661Z,79.80
2022-12-08T19:32:05.293Z,69.50
2022-12-08T19:34:35.476Z,83.43
2022-12-08T19:37:03.518Z,73.90
2022-12-08T19:39:51.765Z,72.50
2022-12-08T19:42:40.317Z,61.67
2022-12-08T19:45:14.243Z,63.03
2022-12-08T19:47:45.229Z,60.77
2022-12-08T19:50:33.790Z,55.73
2022-12-08T19:53:05.401Z,58.03
2022-12-08T19:55:33.486Z,54.43
2022-12-08T19:58:04.745Z,55.38
2022-12-08T20:00:34.001Z,47.93
2022-12-08T20:03:03.803Z,22.33
2022-12-08T20:05:35.212Z,70.97
2022-12-08T20:08:04.267Z,72.23
2022-12-08T20:13:26.856Z,65.10
2022-12-08T20:15:56.514Z,67.07
2022-12-08T20:18:25.562Z,74.23
2022-12-08T20:20:54.248Z,68.23
2022-12-08T20:25:50.299Z,65.05
2022-12-08T20:28:20.372Z,74.10
2022-12-08T20:30:50.662Z,68.33
2022-12-08T20:33:21.106Z,69.30
2022-12-08T20:36:01.893Z,61.40
2022-12-08T20:38:31.033Z,68.90
2022-12-08T20:40:59.695Z,62.80
2022-12-08T20:43:28.424Z,61.23
2022-12-08T20:45:58.106Z,59.93
2022-12-08T20:48:26.721Z,57.30
2022-12-08T20:50:55.114Z,59.83
2022-12-08T20:53:24.538Z,48.10
2022-12-08T20:55:52.762Z,48.23
2022-12-08T21:00:50.214Z,55.25
2022-12-08T21:03:18.836Z,59.13
2022-12-08T21:05:54.211Z,50.83
2022-12-08T21:08:25.915Z,56.00
2022-12-08T21:10:56.745Z,58.23
2022-12-08T21:13:26.725Z,47.83
2022-12-08T21:15:55.967Z,56.90
2022-12-08T21:18:25.121Z,41.67
2022-12-08T21:21:03.581Z,46.77
2022-12-08T21:23:31.939Z,48.67
2022-12-08T21:25:59.724Z,41.83
2022-12-08T21:28:27.994Z,42.33
2022-12-08T21:30:58.298Z,35.13
2022-12-08T21:33:29.238Z,40.70
2022-12-08T21:39:03.713Z,25.50
2022-12-08T21:41:52.247Z,35.83
2022-12-08T21:44:27.149Z,34.20
2022-12-08T21:47:07.239Z,37.13
2022-12-08T21:49:36.262Z,21.33
2022-12-08T21:52:05.963Z,13.70
2022-12-08T21:54:33.768Z,15.33
2022-12-08T21:57:01.758Z,18.70
2022-12-08T22:02:00.104Z,16.93
2022-12-08T22:04:30.654Z,19.13
2022-12-08T22:06:58.440Z,34.27
2022-12-08T22:09:26.188Z,35.13
2022-12-08T22:11:53.984Z,33.40
2022-12-08T22:14:21.794Z,20.17
2022-12-08T22:16:50.208Z,28.45
2022-12-08T22:19:18.080Z,29.97
2022-12-08T22:21:47.031Z,16.70
2022-12-08T22:24:16.504Z,12.27
2022-12-08T22:29:29.664Z,19.80
2022-12-08T22:31:57.634Z,19.33
2022-12-08T22:34:25.846Z,17.57
2022-12-08T22:36:54.882Z,22.27
2022-12-08T22:39:24.151Z,26.07
2022-12-08T22:41:53.148Z,24.53
2022-12-08T22:44:23.121Z,30.90
2022-12-08T22:50:03.186Z,32.93
2022-12-08T22:52:32.304Z,28.93
2022-12-08T22:55:02.880Z,23.83
2022-12-08T22:57:34.637Z,30.67
2022-12-08T23:00:03.636Z,33.07
2022-12-08T23:02:33.500Z,23.00
2022-12-08T23:05:01.630Z,25.03
2022-12-08T23:07:30.675Z,25.43
2022-12-08T23:09:58.452Z,22.50
2022-12-08T23:12:26.815Z,23.30
2022-12-08T23:14:54.591Z,25.30
2022-12-08T23:17:24.747Z,23.77
2022-12-08T23:19:52.345Z,25.77
2022-12-08T23:22:20.178Z,26.23
2022-12-08T23:24:47.779Z,25.90
2022-12-08T23:27:15.782Z,26.00
2022-12-08T23:29:43.525Z,24.65
2022-12-08T23:32:11.717Z,25.30
2022-12-08T23:34:39.655Z,25.03
2022-12-08T23:37:07.421Z,28.48
2022-12-08T23:39:35.369Z,22.05
2022-12-08T23:42:03.186Z,22.67
2022-12-08T23:44:31.523Z,19.98
2022-12-08T23:46:59.547Z,20.33
2022-12-08T23:51:54.888Z,15.40
2022-12-08T23:54:22.459Z,21.58
2022-12-08T23:56:50.596Z,29.42
2022-12-08T23:59:18.374Z,27.60
